createdAt,value
2023-02-16T00:00:52.680Z,80.61
2023-02-16T00:01:59.893Z,80.81
2023-02-16T00:02:52.638Z,80.91
2023-02-16T00:03:52.678Z,80.91
2023-02-16T00:04:52.626Z,80.91
2023-02-16T00:05:52.622Z,80.91
2023-02-16T00:06:52.614Z,81.02
2023-02-16T00:07:52.595Z,81.02
2023-02-16T00:08:52.588Z,81.23
2023-02-16T00:09:52.564Z,81.33
2023-02-16T00:10:52.566Z,81.43
2023-02-16T00:11:52.560Z,81.33
2023-02-16T00:12:52.533Z,81.53
2023-02-16T00:13:52.529Z,81.63
2023-02-16T00:14:52.499Z,81.67
2023-02-16T00:15:52.528Z,81.63
2023-02-16T00:16:52.498Z,81.63
2023-02-16T00:17:52.502Z,81.57
2023-02-16T00:18:52.493Z,81.33
2023-02-16T00:19:52.449Z,80.91
2023-02-16T00:20:52.436Z,81.23
2023-02-16T00:21:52.441Z,81.16
2023-02-16T00:22:52.411Z,81.16
2023-02-16T00:23:52.419Z,80.95
2023-02-16T00:24:52.391Z,81.77
2023-02-16T00:25:52.411Z,81.88
2023-02-16T00:26:52.384Z,81.57
2023-02-16T00:27:52.376Z,81.77
2023-02-16T00:28:52.348Z,81.67
2023-02-16T00:29:52.407Z,81.67
2023-02-16T00:30:52.421Z,81.77
2023-02-16T00:31:52.450Z,81.57
2023-02-16T00:32:52.299Z,81.88
2023-02-16T00:33:52.418Z,81.77
2023-02-16T00:34:52.287Z,81.74
2023-02-16T00:35:52.300Z,81.88
2023-02-16T00:36:52.264Z,81.57
2023-02-16T00:37:52.245Z,81.67
2023-02-16T00:38:52.232Z,81.67
2023-02-16T00:39:52.231Z,81.57
2023-02-16T00:40:52.225Z,82.09
2023-02-16T00:41:52.212Z,81.77
2023-02-16T00:42:52.195Z,82.09
2023-02-16T00:43:52.182Z,81.88
2023-02-16T00:44:52.166Z,82.09
2023-02-16T00:45:52.202Z,82.09
2023-02-16T00:46:52.156Z,82.40
2023-02-16T00:47:52.145Z,81.88
2023-02-16T00:48:52.132Z,82.19
2023-02-16T00:49:52.193Z,82.29
2023-02-16T00:50:52.115Z,82.12
2023-02-16T00:51:52.096Z,82.19
2023-02-16T00:52:52.153Z,82.23
2023-02-16T00:53:52.087Z,82.40
2023-02-16T00:54:52.072Z,82.43
2023-02-16T00:55:52.039Z,82.02
2023-02-16T00:56:52.044Z,82.60
2023-02-16T00:57:52.054Z,82.33
2023-02-16T00:58:52.011Z,82.64
2023-02-16T00:59:52.005Z,82.60
2023-02-16T01:00:52.007Z,82.64
2023-02-16T01:01:52.099Z,82.84
2023-02-16T01:02:51.958Z,82.64
2023-02-16T01:03:51.978Z,82.95
2023-02-16T01:04:52.026Z,82.74
2023-02-16T01:05:51.950Z,82.95
2023-02-16T01:06:51.917Z,82.84
2023-02-16T01:07:51.918Z,82.95
2023-02-16T01:08:51.906Z,83.26
2023-02-16T01:09:51.910Z,82.84
2023-02-16T01:10:51.878Z,82.84
2023-02-16T01:11:51.856Z,83.05
2023-02-16T01:12:51.843Z,82.84
2023-02-16T01:13:51.872Z,83.05
2023-02-16T01:14:51.827Z,83.15
2023-02-16T01:15:51.888Z,82.74
2023-02-16T01:16:51.806Z,83.05
2023-02-16T01:17:51.793Z,83.05
2023-02-16T01:18:51.776Z,82.84
2023-02-16T01:19:51.773Z,82.74
2023-02-16T01:20:51.751Z,82.78
2023-02-16T01:21:51.773Z,82.78
2023-02-16T01:22:51.729Z,82.74
2023-02-16T01:23:51.768Z,82.89
2023-02-16T01:24:51.727Z,83.05
2023-02-16T01:25:51.705Z,82.98
2023-02-16T01:26:51.713Z,83.29
2023-02-16T01:27:51.680Z,83.71
2023-02-16T01:28:51.659Z,83.71
2023-02-16T01:29:51.717Z,83.71
2023-02-16T01:30:51.880Z,83.15
2023-02-16T01:31:51.698Z,83.50
2023-02-16T01:32:51.767Z,83.50
2023-02-16T01:33:51.613Z,83.40
2023-02-16T01:34:51.593Z,83.71
2023-02-16T01:35:51.602Z,83.50
2023-02-16T01:36:51.599Z,83.40
2023-02-16T01:37:51.591Z,83.19
2023-02-16T01:38:51.553Z,82.98
2023-02-16T01:39:51.544Z,82.98
2023-02-16T01:40:51.531Z,83.29
2023-02-16T01:41:51.549Z,83.19
2023-02-16T01:42:51.509Z,83.09
2023-02-16T01:43:51.492Z,83.09
2023-02-16T01:44:51.486Z,83.29
2023-02-16T01:45:51.470Z,83.19
2023-02-16T01:46:51.553Z,82.98
2023-02-16T01:47:51.470Z,83.91
2023-02-16T01:48:51.435Z,83.81
2023-02-16T01:49:51.436Z,83.54
2023-02-16T01:50:51.425Z,83.50
2023-02-16T01:51:51.417Z,83.19
2023-02-16T01:52:51.387Z,83.64
2023-02-16T01:53:51.419Z,83.19
2023-02-16T01:54:51.371Z,83.03
2023-02-16T01:55:51.377Z,83.44
2023-02-16T01:56:51.350Z,83.50
2023-02-16T01:57:51.352Z,83.03
2023-02-16T01:58:51.326Z,83.40
2023-02-16T01:59:51.328Z,83.33
2023-02-16T02:00:51.302Z,83.54
2023-02-16T02:01:51.378Z,84.06
2023-02-16T02:02:51.337Z,83.75
2023-02-16T02:03:51.285Z,83.64
2023-02-16T02:04:51.266Z,83.75
2023-02-16T02:05:51.245Z,83.75
2023-02-16T02:06:51.233Z,83.95
2023-02-16T02:07:51.232Z,83.95
2023-02-16T02:08:51.208Z,84.27
2023-02-16T02:09:51.239Z,84.06
2023-02-16T02:10:51.191Z,84.36
2023-02-16T02:11:51.228Z,84.81
2023-02-16T02:12:51.255Z,84.78
2023-02-16T02:13:51.168Z,84.99
2023-02-16T02:14:51.164Z,84.88
2023-02-16T02:15:51.155Z,84.78
2023-02-16T02:16:51.126Z,84.78
2023-02-16T02:17:51.130Z,84.67
2023-02-16T02:18:51.099Z,84.81
2023-02-16T02:19:51.086Z,84.78
2023-02-16T02:20:51.088Z,84.27
2023-02-16T02:21:51.064Z,84.27
2023-02-16T02:22:51.073Z,84.30
2023-02-16T02:23:51.066Z,84.81
2023-02-16T02:24:51.032Z,84.09
2023-02-16T02:25:51.075Z,84.72
2023-02-16T02:26:51.010Z,84.30
2023-02-16T02:27:50.999Z,84.72
2023-02-16T02:28:50.985Z,84.41
2023-02-16T02:29:50.984Z,84.30
2023-02-16T02:30:51.019Z,85.33
2023-02-16T02:31:51.134Z,85.02
2023-02-16T02:32:50.947Z,85.13
2023-02-16T02:33:50.932Z,84.92
2023-02-16T02:34:50.920Z,85.13
2023-02-16T02:35:50.914Z,84.92
2023-02-16T02:36:50.909Z,85.02
2023-02-16T02:37:50.887Z,84.61
2023-02-16T02:38:50.870Z,84.72
2023-02-16T02:39:50.875Z,85.13
2023-02-16T02:40:50.878Z,84.92
2023-02-16T02:41:50.863Z,84.72
2023-02-16T02:42:50.825Z,84.81
2023-02-16T02:43:50.816Z,84.81
2023-02-16T02:44:50.807Z,85.06
2023-02-16T02:45:50.823Z,84.75
2023-02-16T02:46:50.875Z,85.17
2023-02-16T02:47:50.779Z,84.92
2023-02-16T02:48:50.765Z,84.65
2023-02-16T02:49:50.748Z,84.96
2023-02-16T02:50:50.742Z,84.81
2023-02-16T02:51:50.731Z,84.92
2023-02-16T02:52:50.716Z,84.96
2023-02-16T02:53:50.721Z,84.96
2023-02-16T02:54:50.713Z,85.47
2023-02-16T02:55:50.702Z,85.37
2023-02-16T02:56:50.689Z,85.37
2023-02-16T02:57:50.687Z,85.47
2023-02-16T02:58:50.662Z,85.47
2023-02-16T02:59:50.649Z,85.58
2023-02-16T03:00:50.669Z,85.47
2023-02-16T03:01:50.672Z,85.37
2023-02-16T03:02:50.605Z,85.27
2023-02-16T03:03:50.599Z,85.58
2023-02-16T03:04:50.590Z,85.44
2023-02-16T03:05:50.569Z,85.58
2023-02-16T03:06:50.551Z,85.68
2023-02-16T03:07:50.572Z,85.37
2023-02-16T03:08:50.532Z,85.47
2023-02-16T03:09:50.529Z,85.68
2023-02-16T03:10:50.523Z,85.58
2023-02-16T03:11:50.507Z,85.37
2023-02-16T03:12:50.499Z,85.37
2023-02-16T03:13:50.524Z,85.47
2023-02-16T03:14:50.466Z,85.47
2023-02-16T03:15:50.467Z,85.47
2023-02-16T03:16:50.444Z,85.41
2023-02-16T03:17:50.434Z,85.47
2023-02-16T03:18:50.428Z,85.37
2023-02-16T03:19:50.425Z,85.37
2023-02-16T03:20:50.395Z,85.58
2023-02-16T03:21:50.385Z,85.47
2023-02-16T03:22:50.397Z,85.58
2023-02-16T03:23:50.368Z,85.47
2023-02-16T03:24:50.359Z,85.58
2023-02-16T03:25:50.356Z,85.47
2023-02-16T03:26:50.333Z,85.47
2023-02-16T03:27:50.320Z,85.47
2023-02-16T03:28:50.303Z,85.47
2023-02-16T03:29:50.332Z,85.47
2023-02-16T03:30:50.398Z,85.47
2023-02-16T03:31:50.337Z,85.37
2023-02-16T03:32:50.270Z,85.21
2023-02-16T03:33:50.252Z,85.47
2023-02-16T03:34:50.256Z,85.47
2023-02-16T03:35:50.249Z,85.37
2023-02-16T03:36:50.241Z,85.37
2023-02-16T03:37:50.208Z,84.96
2023-02-16T03:38:50.195Z,85.41
2023-02-16T03:39:50.179Z,85.37
2023-02-16T03:40:50.196Z,85.52
2023-02-16T03:41:50.171Z,85.41
2023-02-16T03:42:50.150Z,85.52
2023-02-16T03:43:50.148Z,85.62
2023-02-16T03:44:50.123Z,85.52
2023-02-16T03:45:50.187Z,85.41
2023-02-16T03:46:50.105Z,85.41
2023-02-16T03:47:50.093Z,85.31
2023-02-16T03:48:50.089Z,85.52
2023-02-16T03:49:50.092Z,85.00
2023-02-16T03:50:50.079Z,84.89
2023-02-16T03:51:50.044Z,85.52
2023-02-16T03:52:50.035Z,85.41
2023-02-16T03:53:50.060Z,85.41
2023-02-16T03:54:50.025Z,85.52
2023-02-16T03:55:50.025Z,85.31
2023-02-16T03:56:50.000Z,85.41
2023-02-16T03:57:50.010Z,85.41
2023-02-16T03:58:49.987Z,84.89
2023-02-16T03:59:49.964Z,85.00
2023-02-16T04:00:49.949Z,84.89
2023-02-16T04:01:50.020Z,84.79
2023-02-16T04:02:49.945Z,84.89
2023-02-16T04:03:49.953Z,84.89
2023-02-16T04:04:49.907Z,84.89
2023-02-16T04:05:49.899Z,84.89
2023-02-16T04:06:49.880Z,84.89
2023-02-16T04:07:49.872Z,84.89
2023-02-16T04:08:49.880Z,85.21
2023-02-16T04:09:49.853Z,84.79
2023-02-16T04:10:49.835Z,84.89
2023-02-16T04:11:49.827Z,85.10
2023-02-16T04:12:49.817Z,84.79
2023-02-16T04:13:49.806Z,84.79
2023-02-16T04:14:49.814Z,84.94
2023-02-16T04:15:49.784Z,84.89
2023-02-16T04:16:49.891Z,84.79
2023-02-16T04:17:49.772Z,85.55
2023-02-16T04:18:49.774Z,84.79
2023-02-16T04:19:49.743Z,84.94
2023-02-16T04:20:49.724Z,84.89
2023-02-16T04:21:49.719Z,85.52
2023-02-16T04:22:49.719Z,85.35
2023-02-16T04:23:49.700Z,85.76
2023-02-16T04:24:49.692Z,85.45
2023-02-16T04:25:49.664Z,85.52
2023-02-16T04:26:49.682Z,85.66
2023-02-16T04:27:49.687Z,84.79
2023-02-16T04:28:49.638Z,84.89
2023-02-16T04:29:49.642Z,85.14
2023-02-16T04:30:49.728Z,84.79
2023-02-16T04:31:49.743Z,85.00
2023-02-16T04:32:49.590Z,84.79
2023-02-16T04:33:49.617Z,85.00
2023-02-16T04:34:49.562Z,85.21
2023-02-16T04:35:49.555Z,85.14
2023-02-16T04:36:49.557Z,85.04
2023-02-16T04:37:49.535Z,84.79
2023-02-16T04:38:49.533Z,84.94
2023-02-16T04:39:49.510Z,84.89
2023-02-16T04:40:49.514Z,85.04
2023-02-16T04:41:49.492Z,85.00
2023-02-16T04:42:49.498Z,84.94
2023-02-16T04:43:49.476Z,84.94
2023-02-16T04:44:49.452Z,84.73
2023-02-16T04:45:49.553Z,85.55
2023-02-16T04:46:49.435Z,85.66
2023-02-16T04:47:49.421Z,85.66
2023-02-16T04:48:49.419Z,85.45
2023-02-16T04:49:50.373Z,85.55
2023-02-16T04:50:49.398Z,85.52
2023-02-16T04:51:49.400Z,85.55
2023-02-16T04:52:49.360Z,85.45
2023-02-16T04:53:49.348Z,85.45
2023-02-16T04:54:49.342Z,85.55
2023-02-16T04:55:49.326Z,85.14
2023-02-16T04:56:49.322Z,84.89
2023-02-16T04:57:49.312Z,85.04
2023-02-16T04:58:49.314Z,85.14
2023-02-16T04:59:49.294Z,84.83
2023-02-16T05:00:49.273Z,84.79
2023-02-16T05:01:49.334Z,84.89
2023-02-16T05:02:49.252Z,84.89
2023-02-16T05:03:49.237Z,85.00
2023-02-16T05:04:49.315Z,84.89
2023-02-16T05:05:49.237Z,85.00
2023-02-16T05:06:49.224Z,84.79
2023-02-16T05:07:49.198Z,84.63
2023-02-16T05:08:49.185Z,84.94
2023-02-16T05:09:49.193Z,84.94
2023-02-16T05:10:49.169Z,84.94
2023-02-16T05:11:49.147Z,85.04
2023-02-16T05:12:49.148Z,85.45
2023-02-16T05:13:49.123Z,85.45
2023-02-16T05:14:49.132Z,85.45
2023-02-16T05:15:49.161Z,85.55
2023-02-16T05:16:49.104Z,85.35
2023-02-16T05:17:49.081Z,85.55
2023-02-16T05:18:49.077Z,85.66
2023-02-16T05:19:49.075Z,85.45
2023-02-16T05:20:49.053Z,85.55
2023-02-16T05:21:49.069Z,85.76
2023-02-16T05:22:49.030Z,85.76
2023-02-16T05:23:49.014Z,86.01
2023-02-16T05:24:49.017Z,85.76
2023-02-16T05:25:48.986Z,85.86
2023-02-16T05:26:48.977Z,85.80
2023-02-16T05:27:49.007Z,85.76
2023-02-16T05:28:48.960Z,85.66
2023-02-16T05:29:48.947Z,85.55
2023-02-16T05:30:49.040Z,85.76
2023-02-16T05:31:49.018Z,85.66
2023-02-16T05:32:48.917Z,85.76
2023-02-16T05:33:48.901Z,85.66
2023-02-16T05:34:48.902Z,85.86
2023-02-16T05:35:48.884Z,85.66
2023-02-16T05:36:48.870Z,85.55
2023-02-16T05:37:48.893Z,85.66
2023-02-16T05:38:48.867Z,85.76
2023-02-16T05:39:48.840Z,85.76
2023-02-16T05:40:48.864Z,85.76
2023-02-16T05:41:48.811Z,85.76
2023-02-16T05:42:48.808Z,85.86
2023-02-16T05:43:48.810Z,85.76
2023-02-16T05:44:48.787Z,85.66
2023-02-16T05:45:48.770Z,85.66
2023-02-16T05:46:48.775Z,85.76
2023-02-16T05:47:48.746Z,85.52
2023-02-16T05:48:48.744Z,85.41
2023-02-16T05:49:48.727Z,84.89
2023-02-16T05:50:48.730Z,84.79
2023-02-16T05:51:48.718Z,84.69
2023-02-16T05:52:48.694Z,84.89
2023-02-16T05:53:48.791Z,84.94
2023-02-16T05:54:48.677Z,85.04
2023-02-16T05:55:48.800Z,84.79
2023-02-16T05:56:48.673Z,85.10
2023-02-16T05:57:48.651Z,85.00
2023-02-16T05:58:48.630Z,85.21
2023-02-16T05:59:48.624Z,85.31
2023-02-16T06:00:48.610Z,85.10
2023-02-16T06:01:51.612Z,85.10
2023-02-16T06:02:55.757Z,85.31
2023-02-16T06:03:48.587Z,85.41
2023-02-16T06:04:48.568Z,84.69
2023-02-16T06:05:48.549Z,85.00
2023-02-16T06:06:48.657Z,84.38
2023-02-16T06:07:48.565Z,84.48
2023-02-16T06:08:48.534Z,84.38
2023-02-16T06:09:48.530Z,84.38
2023-02-16T06:10:48.504Z,84.59
2023-02-16T06:11:48.503Z,84.55
2023-02-16T06:12:48.485Z,84.59
2023-02-16T06:13:48.463Z,84.48
2023-02-16T06:14:48.468Z,84.34
2023-02-16T06:15:48.506Z,84.44
2023-02-16T06:16:48.444Z,84.55
2023-02-16T06:17:48.420Z,84.89
2023-02-16T06:18:48.413Z,84.44
2023-02-16T06:19:48.395Z,84.55
2023-02-16T06:20:48.411Z,84.34
2023-02-16T06:21:48.396Z,84.55
2023-02-16T06:22:48.372Z,84.65
2023-02-16T06:23:48.351Z,84.55
2023-02-16T06:24:48.349Z,84.38
2023-02-16T06:25:48.368Z,84.44
2023-02-16T06:26:48.340Z,84.89
2023-02-16T06:27:48.317Z,84.59
2023-02-16T06:28:48.309Z,84.55
2023-02-16T06:29:48.294Z,84.75
2023-02-16T06:30:48.278Z,84.75
2023-02-16T06:31:48.367Z,85.17
2023-02-16T06:32:48.266Z,84.79
2023-02-16T06:33:48.269Z,85.31
2023-02-16T06:34:48.228Z,85.27
2023-02-16T06:35:48.215Z,85.27
2023-02-16T06:36:48.216Z,85.27
2023-02-16T06:37:48.198Z,85.27
2023-02-16T06:38:48.199Z,85.06
2023-02-16T06:39:48.178Z,85.31
2023-02-16T06:40:48.165Z,85.17
2023-02-16T06:41:48.202Z,85.41
2023-02-16T06:42:48.203Z,85.27
2023-02-16T06:43:48.126Z,85.27
2023-02-16T06:44:48.130Z,85.17
2023-02-16T06:45:48.110Z,85.17
2023-02-16T06:46:48.184Z,85.17
2023-02-16T06:47:48.101Z,85.17
2023-02-16T06:48:48.073Z,84.96
2023-02-16T06:49:48.061Z,84.75
2023-02-16T06:50:48.069Z,84.65
2023-02-16T06:51:48.050Z,84.65
2023-02-16T06:52:48.041Z,85.17
2023-02-16T06:53:48.016Z,84.96
2023-02-16T06:54:48.007Z,85.27
2023-02-16T06:55:47.999Z,85.17
2023-02-16T06:56:47.990Z,85.17
2023-02-16T06:57:48.028Z,85.27
2023-02-16T06:58:47.971Z,85.23
2023-02-16T06:59:47.952Z,85.02
2023-02-16T07:00:48.010Z,85.06
2023-02-16T07:01:47.936Z,85.17
2023-02-16T07:02:47.916Z,85.27
2023-02-16T07:03:50.848Z,85.27
2023-02-16T07:04:47.893Z,85.17
2023-02-16T07:05:47.891Z,85.17
2023-02-16T07:06:47.874Z,84.96
2023-02-16T07:07:47.872Z,85.13
2023-02-16T07:08:47.856Z,85.17
2023-02-16T07:09:47.855Z,84.81
2023-02-16T07:10:50.393Z,85.13
2023-02-16T07:11:47.810Z,84.81
2023-02-16T07:12:47.801Z,84.72
2023-02-16T07:13:47.823Z,84.86
2023-02-16T07:14:47.788Z,84.96
2023-02-16T07:15:47.773Z,84.81
2023-02-16T07:16:47.772Z,84.86
2023-02-16T07:17:47.742Z,84.92
2023-02-16T07:18:47.747Z,84.81
2023-02-16T07:19:47.719Z,84.81
2023-02-16T07:20:47.717Z,85.33
2023-02-16T07:21:47.718Z,84.72
2023-02-16T07:22:47.698Z,84.81
2023-02-16T07:23:47.676Z,84.81
2023-02-16T07:24:47.677Z,84.61
2023-02-16T07:25:47.656Z,85.44
2023-02-16T07:26:47.646Z,85.33
2023-02-16T07:27:47.646Z,85.23
2023-02-16T07:28:47.628Z,85.33
2023-02-16T07:29:47.635Z,85.44
2023-02-16T07:30:47.597Z,84.92
2023-02-16T07:31:47.891Z,84.72
2023-02-16T07:32:47.578Z,84.81
2023-02-16T07:33:47.595Z,84.92
2023-02-16T07:34:47.560Z,84.67
2023-02-16T07:35:47.546Z,84.47
2023-02-16T07:36:47.539Z,84.47
2023-02-16T07:37:47.574Z,84.88
2023-02-16T07:38:47.517Z,85.19
2023-02-16T07:39:47.510Z,85.09
2023-02-16T07:40:47.489Z,84.99
2023-02-16T07:41:47.474Z,85.09
2023-02-16T07:42:47.465Z,85.09
2023-02-16T07:43:47.455Z,84.99
2023-02-16T07:44:47.439Z,85.09
2023-02-16T07:45:47.598Z,85.09
2023-02-16T07:46:47.432Z,85.09
2023-02-16T07:47:47.565Z,85.09
2023-02-16T07:48:47.414Z,84.99
2023-02-16T07:49:47.389Z,85.15
2023-02-16T07:50:47.369Z,85.19
2023-02-16T07:51:47.377Z,85.09
2023-02-16T07:52:47.356Z,85.05
2023-02-16T07:53:47.338Z,85.19
2023-02-16T07:54:47.343Z,85.09
2023-02-16T07:55:47.328Z,85.09
2023-02-16T07:56:47.304Z,84.99
2023-02-16T07:57:47.300Z,85.19
2023-02-16T07:58:47.301Z,84.88
2023-02-16T07:59:47.270Z,84.47
2023-02-16T08:00:47.265Z,84.67
2023-02-16T08:01:47.294Z,84.47
2023-02-16T08:02:47.413Z,84.78
2023-02-16T08:03:47.228Z,84.88
2023-02-16T08:04:47.231Z,84.78
2023-02-16T08:05:47.216Z,84.57
2023-02-16T08:06:47.199Z,84.78
2023-02-16T08:07:47.178Z,84.78
2023-02-16T08:08:47.179Z,84.78
2023-02-16T08:09:47.159Z,84.78
2023-02-16T08:10:47.171Z,84.84
2023-02-16T08:11:47.157Z,84.64
2023-02-16T08:12:47.122Z,85.09
2023-02-16T08:13:47.111Z,84.53
2023-02-16T08:14:47.109Z,84.99
2023-02-16T08:15:47.107Z,84.99
2023-02-16T08:16:47.118Z,84.84
2023-02-16T08:17:47.215Z,84.78
2023-02-16T08:18:47.199Z,84.84
2023-02-16T08:19:47.055Z,85.05
2023-02-16T08:21:02.681Z,84.88
2023-02-16T08:21:48.029Z,84.43
2023-02-16T08:22:47.029Z,84.53
2023-02-16T08:23:47.029Z,84.64
2023-02-16T08:24:47.004Z,84.74
2023-02-16T08:25:46.982Z,84.84
2023-02-16T08:26:46.968Z,84.84
2023-02-16T08:27:46.962Z,84.74
2023-02-16T08:28:46.999Z,85.05
2023-02-16T08:29:46.950Z,84.74
2023-02-16T08:30:46.924Z,84.94
2023-02-16T08:31:47.064Z,84.74
2023-02-16T08:32:46.907Z,84.74
2023-02-16T08:33:46.915Z,84.53
2023-02-16T08:34:46.903Z,84.64
2023-02-16T08:35:46.872Z,85.05
2023-02-16T08:36:46.856Z,84.84
2023-02-16T08:37:46.856Z,84.94
2023-02-16T08:38:46.843Z,85.36
2023-02-16T08:39:46.839Z,84.84
2023-02-16T08:40:46.815Z,84.94
2023-02-16T08:41:46.806Z,84.84
2023-02-16T08:42:46.803Z,85.05
2023-02-16T08:43:46.809Z,84.84
2023-02-16T08:44:46.794Z,84.94
2023-02-16T08:45:46.775Z,84.84
2023-02-16T08:46:47.329Z,84.84
2023-02-16T08:47:46.734Z,84.84
2023-02-16T08:48:46.739Z,84.84
2023-02-16T08:49:46.738Z,84.64
2023-02-16T08:50:46.697Z,84.43
2023-02-16T08:51:46.699Z,84.84
2023-02-16T08:52:46.672Z,84.74
2023-02-16T08:53:46.736Z,84.74
2023-02-16T08:54:46.672Z,84.64
2023-02-16T08:55:46.647Z,84.80
2023-02-16T08:56:46.636Z,84.70
2023-02-16T08:57:46.618Z,84.49
2023-02-16T08:58:46.610Z,85.01
2023-02-16T08:59:46.605Z,84.91
2023-02-16T09:00:46.588Z,84.91
2023-02-16T09:01:46.588Z,84.80
2023-02-16T09:02:46.604Z,85.11
2023-02-16T09:03:46.552Z,84.91
2023-02-16T09:04:48.732Z,85.01
2023-02-16T09:05:46.553Z,84.91
2023-02-16T09:06:46.525Z,85.11
2023-02-16T09:07:46.505Z,84.59
2023-02-16T09:08:46.564Z,84.14
2023-02-16T09:09:46.495Z,84.14
2023-02-16T09:10:46.488Z,84.45
2023-02-16T09:11:46.465Z,84.14
2023-02-16T09:12:46.451Z,83.94
2023-02-16T09:13:46.430Z,83.84
2023-02-16T09:14:46.421Z,83.63
2023-02-16T09:15:46.415Z,83.42
2023-02-16T09:16:46.598Z,83.42
2023-02-16T09:17:46.392Z,83.01
2023-02-16T09:18:46.383Z,83.01
2023-02-16T09:19:46.371Z,82.91
2023-02-16T09:20:47.075Z,83.28
2023-02-16T09:21:46.377Z,82.87
2023-02-16T09:22:46.343Z,82.77
2023-02-16T09:23:46.325Z,83.07
2023-02-16T09:24:46.325Z,82.83
2023-02-16T09:25:46.302Z,83.14
2023-02-16T09:26:46.300Z,83.18
2023-02-16T09:27:46.308Z,83.18
2023-02-16T09:28:46.264Z,82.15
2023-02-16T09:29:46.266Z,82.21
2023-02-16T09:30:46.256Z,83.14
2023-02-16T09:31:46.273Z,82.11
2023-02-16T09:32:46.228Z,82.25
2023-02-16T09:33:46.214Z,82.11
2023-02-16T09:34:46.195Z,81.95
2023-02-16T09:35:46.186Z,82.42
2023-02-16T09:36:46.169Z,82.11
2023-02-16T09:37:46.206Z,82.42
2023-02-16T09:38:46.154Z,82.11
2023-02-16T09:39:46.141Z,81.70
2023-02-16T09:40:46.120Z,81.39
2023-02-16T09:41:46.118Z,81.49
2023-02-16T09:42:46.103Z,81.60
2023-02-16T09:43:46.122Z,81.97
2023-02-16T09:44:46.081Z,81.97
2023-02-16T09:45:46.155Z,81.76
2023-02-16T09:46:46.056Z,81.97
2023-02-16T09:47:46.049Z,82.07
2023-02-16T09:48:46.041Z,81.35
2023-02-16T09:49:46.058Z,81.56
2023-02-16T09:50:53.898Z,81.76
2023-02-16T09:51:46.999Z,81.46
2023-02-16T09:52:45.995Z,81.67
2023-02-16T09:53:46.003Z,81.97
2023-02-16T09:54:45.963Z,81.46
2023-02-16T09:55:45.983Z,81.56
2023-02-16T09:56:45.942Z,81.56
2023-02-16T09:57:45.935Z,81.87
2023-02-16T09:58:45.918Z,81.76
2023-02-16T09:59:45.911Z,81.76
2023-02-16T10:00:45.904Z,81.97
2023-02-16T10:01:45.897Z,82.42
2023-02-16T10:02:45.975Z,82.18
2023-02-16T10:03:45.865Z,82.21
2023-02-16T10:04:46.304Z,82.28
2023-02-16T10:05:45.869Z,82.11
2023-02-16T10:06:45.831Z,82.21
2023-02-16T10:07:45.820Z,82.21
2023-02-16T10:08:45.820Z,82.93
2023-02-16T10:09:45.824Z,83.14
2023-02-16T10:10:45.785Z,82.63
2023-02-16T10:11:45.785Z,82.83
2023-02-16T10:12:45.761Z,82.59
2023-02-16T10:13:45.749Z,82.42
2023-02-16T10:14:45.736Z,82.79
2023-02-16T10:15:45.871Z,82.73
2023-02-16T10:16:45.718Z,83.11
2023-02-16T10:17:45.705Z,82.79
2023-02-16T10:18:45.709Z,82.83
2023-02-16T10:19:45.687Z,82.59
2023-02-16T10:20:45.666Z,82.59
2023-02-16T10:21:45.673Z,82.69
2023-02-16T10:22:45.663Z,82.59
2023-02-16T10:23:45.637Z,82.48
2023-02-16T10:24:45.638Z,82.90
2023-02-16T10:25:45.651Z,82.18
2023-02-16T10:26:45.606Z,82.59
2023-02-16T10:27:45.611Z,82.59
2023-02-16T10:28:45.600Z,82.69
2023-02-16T10:29:45.595Z,82.18
2023-02-16T10:30:45.628Z,83.11
2023-02-16T10:31:45.650Z,83.41
2023-02-16T10:32:45.537Z,82.96
2023-02-16T10:33:45.546Z,83.37
2023-02-16T10:34:45.531Z,82.45
2023-02-16T10:35:45.517Z,83.37
2023-02-16T10:36:45.496Z,82.76
2023-02-16T10:37:45.482Z,82.96
2023-02-16T10:38:45.466Z,82.86
2023-02-16T10:39:45.488Z,82.65
2023-02-16T10:40:45.463Z,82.45
2023-02-16T10:41:45.462Z,82.79
2023-02-16T10:42:45.430Z,82.76
2023-02-16T10:43:45.419Z,82.69
2023-02-16T10:44:45.410Z,82.86
2023-02-16T10:45:49.564Z,83.06
2023-02-16T10:46:45.451Z,82.76
2023-02-16T10:47:45.385Z,83.06
2023-02-16T10:48:45.358Z,82.65
2023-02-16T10:49:45.356Z,82.86
2023-02-16T10:50:45.346Z,82.76
2023-02-16T10:51:45.340Z,82.86
2023-02-16T10:52:45.318Z,83.68
2023-02-16T10:53:45.308Z,83.58
2023-02-16T10:54:45.293Z,83.37
2023-02-16T10:55:45.304Z,83.17
2023-02-16T10:56:45.273Z,83.48
2023-02-16T10:57:45.342Z,82.76
2023-02-16T10:58:45.244Z,82.86
2023-02-16T10:59:45.243Z,83.17
2023-02-16T11:00:45.224Z,83.06
2023-02-16T11:01:45.258Z,83.17
2023-02-16T11:02:45.198Z,83.48
2023-02-16T11:03:45.194Z,82.86
2023-02-16T11:04:45.265Z,83.17
2023-02-16T11:05:45.179Z,83.48
2023-02-16T11:06:45.153Z,83.78
2023-02-16T11:07:45.155Z,83.99
2023-02-16T11:08:45.133Z,83.99
2023-02-16T11:09:45.129Z,83.89
2023-02-16T11:10:45.120Z,84.16
2023-02-16T11:11:45.102Z,83.78
2023-02-16T11:12:45.094Z,84.71
2023-02-16T11:13:45.228Z,85.12
2023-02-16T11:14:45.064Z,85.22
2023-02-16T11:15:45.081Z,85.22
2023-02-16T11:16:45.048Z,86.77
2023-02-16T11:17:45.042Z,86.05
2023-02-16T11:18:45.019Z,86.66
2023-02-16T11:19:45.022Z,86.46
2023-02-16T11:20:45.031Z,86.87
2023-02-16T11:21:45.012Z,86.97
2023-02-16T11:22:44.969Z,87.38
2023-02-16T11:23:44.985Z,87.07
2023-02-16T11:24:44.968Z,87.59
2023-02-16T11:25:44.947Z,87.69
2023-02-16T11:26:44.937Z,88.51
2023-02-16T11:27:44.921Z,88.20
2023-02-16T11:28:44.913Z,88.51
2023-02-16T11:29:44.921Z,88.31
2023-02-16T11:30:44.940Z,88.62
2023-02-16T11:31:45.001Z,88.27
2023-02-16T11:32:44.912Z,88.57
2023-02-16T11:33:44.875Z,88.82
2023-02-16T11:34:44.834Z,89.09
2023-02-16T11:35:44.826Z,89.19
2023-02-16T11:36:44.835Z,88.78
2023-02-16T11:37:44.816Z,88.89
2023-02-16T11:38:44.799Z,88.78
2023-02-16T11:39:44.807Z,89.09
2023-02-16T11:40:44.771Z,89.29
2023-02-16T11:41:44.757Z,89.91
2023-02-16T11:42:44.741Z,89.81
2023-02-16T11:43:44.732Z,89.40
2023-02-16T11:44:44.735Z,89.60
2023-02-16T11:45:44.749Z,89.91
2023-02-16T11:46:44.797Z,90.12
2023-02-16T11:47:44.681Z,89.13
2023-02-16T11:48:44.673Z,88.98
2023-02-16T11:49:44.668Z,89.40
2023-02-16T11:50:44.660Z,89.70
2023-02-16T11:51:44.636Z,90.12
2023-02-16T11:52:44.624Z,89.60
2023-02-16T11:53:44.623Z,89.70
2023-02-16T11:54:44.597Z,89.70
2023-02-16T11:55:44.604Z,90.01
2023-02-16T11:56:44.584Z,89.91
2023-02-16T11:57:44.568Z,89.81
2023-02-16T11:58:44.561Z,89.70
2023-02-16T11:59:44.543Z,90.32
2023-02-16T12:00:44.529Z,90.12
2023-02-16T12:01:44.553Z,89.81
2023-02-16T12:02:44.512Z,89.70
2023-02-16T12:03:51.672Z,88.98
2023-02-16T12:04:44.492Z,89.54
2023-02-16T12:05:44.472Z,89.91
2023-02-16T12:06:44.488Z,89.70
2023-02-16T12:07:44.454Z,89.50
2023-02-16T12:08:44.464Z,89.81
2023-02-16T12:09:44.451Z,90.01
2023-02-16T12:10:44.431Z,89.76
2023-02-16T12:11:44.415Z,89.15
2023-02-16T12:12:44.412Z,89.76
2023-02-16T12:13:44.390Z,90.08
2023-02-16T12:14:44.380Z,90.18
2023-02-16T12:15:44.370Z,89.87
2023-02-16T12:16:44.374Z,89.87
2023-02-16T12:17:44.355Z,90.38
2023-02-16T12:18:44.329Z,89.76
2023-02-16T12:19:44.322Z,89.97
2023-02-16T12:20:44.380Z,91.00
2023-02-16T12:21:44.288Z,89.56
2023-02-16T12:22:44.291Z,89.81
2023-02-16T12:23:44.263Z,89.40
2023-02-16T12:24:44.261Z,90.28
2023-02-16T12:25:44.253Z,91.00
2023-02-16T12:26:44.256Z,90.59
2023-02-16T12:27:44.225Z,90.83
2023-02-16T12:28:44.227Z,90.01
2023-02-16T12:29:44.210Z,89.91
2023-02-16T12:30:44.228Z,89.81
2023-02-16T12:31:44.290Z,90.63
2023-02-16T12:32:44.186Z,90.63
2023-02-16T12:33:44.178Z,90.63
2023-02-16T12:34:44.152Z,90.42
2023-02-16T12:35:44.143Z,90.53
2023-02-16T12:36:44.151Z,90.42
2023-02-16T12:37:44.112Z,90.73
2023-02-16T12:38:44.103Z,90.26
2023-02-16T12:39:44.097Z,90.57
2023-02-16T12:40:44.076Z,91.19
2023-02-16T12:41:44.100Z,90.98
2023-02-16T12:42:44.065Z,91.08
2023-02-16T12:43:44.040Z,90.78
2023-02-16T12:44:44.030Z,90.98
2023-02-16T12:45:44.076Z,91.29
2023-02-16T12:46:44.010Z,91.04
2023-02-16T12:47:43.988Z,91.39
2023-02-16T12:48:43.994Z,92.01
2023-02-16T12:49:43.998Z,92.11
2023-02-16T12:50:43.975Z,91.80
2023-02-16T12:51:43.942Z,92.42
2023-02-16T12:52:43.944Z,92.42